sensor_id;sensor_type;location;lat;lon;timestamp;pressure;altitude;pressure_sealevel;temperature;humidity
21588;BME280;10956;48.878;13.316;2024-01-10T00:00:03;94833.63;;;-3.40;75.38
21588;BME280;10956;48.878;13.316;2024-01-10T00:02:29;94829.75;;;-3.44;75.98
21588;BME280;10956;48.878;13.316;2024-01-10T00:04:55;94830.22;;;-3.40;76.27
21588;BME280;10956;48.878;13.316;2024-01-10T00:07:20;94829.56;;;-3.34;75.77
21588;BME280;10956;48.878;13.316;2024-01-10T00:09:45;94828.94;;;-3.36;76.31
21588;BME280;10956;48.878;13.316;2024-01-10T00:12:11;94835.06;;;-3.37;76.16
21588;BME280;10956;48.878;13.316;2024-01-10T00:14:36;94834.59;;;-3.41;76.12
21588;BME280;10956;48.878;13.316;2024-01-10T00:17:02;94829.75;;;-3.44;76.77
21588;BME280;10956;48.878;13.316;2024-01-10T00:19:27;94834.44;;;-3.47;77.22
21588;BME280;10956;48.878;13.316;2024-01-10T00:21:53;94822.19;;;-3.45;76.74
21588;BME280;10956;48.878;13.316;2024-01-10T00:24:18;94827.19;;;-3.44;77.07
21588;BME280;10956;48.878;13.316;2024-01-10T00:26:43;94823.78;;;-3.44;77.13
21588;BME280;10956;48.878;13.316;2024-01-10T00:29:09;94824.44;;;-3.42;77.41
21588;BME280;10956;48.878;13.316;2024-01-10T00:31:34;94818.00;;;-3.46;77.67
21588;BME280;10956;48.878;13.316;2024-01-10T00:34:00;94826.22;;;-3.43;77.92
21588;BME280;10956;48.878;13.316;2024-01-10T00:36:26;94828.63;;;-3.41;77.43
21588;BME280;10956;48.878;13.316;2024-01-10T00:38:51;94818.28;;;-3.33;77.46
21588;BME280;10956;48.878;13.316;2024-01-10T00:41:16;94822.00;;;-3.36;77.99
21588;BME280;10956;48.878;13.316;2024-01-10T00:43:42;94822.81;;;-3.35;77.92
21588;BME280;10956;48.878;13.316;2024-01-10T00:46:07;94819.56;;;-3.29;77.12
21588;BME280;10956;48.878;13.316;2024-01-10T00:48:32;94828.75;;;-3.27;77.44
21588;BME280;10956;48.878;13.316;2024-01-10T00:50:59;94822.94;;;-3.29;77.48
21588;BME280;10956;48.878;13.316;2024-01-10T00:53:24;94822.81;;;-3.35;78.16
21588;BME280;10956;48.878;13.316;2024-01-10T00:55:49;94826.66;;;-3.31;77.75
21588;BME280;10956;48.878;13.316;2024-01-10T00:58:15;94835.19;;;-3.22;77.65
21588;BME280;10956;48.878;13.316;2024-01-10T01:00:40;94827.59;;;-3.24;77.87
21588;BME280;10956;48.878;13.316;2024-01-10T01:03:06;94830.19;;;-3.24;78.30
21588;BME280;10956;48.878;13.316;2024-01-10T01:05:31;94832.63;;;-3.31;78.79
21588;BME280;10956;48.878;13.316;2024-01-10T01:07:57;94834.22;;;-3.30;79.13
21588;BME280;10956;48.878;13.316;2024-01-10T01:10:22;94837.94;;;-3.32;79.60
21588;BME280;10956;48.878;13.316;2024-01-10T01:12:48;94837.28;;;-3.26;78.83
21588;BME280;10956;48.878;13.316;2024-01-10T01:15:13;94837.63;;;-3.29;79.38
21588;BME280;10956;48.878;13.316;2024-01-10T01:17:38;94839.22;;;-3.28;79.33
21588;BME280;10956;48.878;13.316;2024-01-10T01:20:05;94842.13;;;-3.31;79.96
21588;BME280;10956;48.878;13.316;2024-01-10T01:22:30;94838.28;;;-3.35;80.46
21588;BME280;10956;48.878;13.316;2024-01-10T01:24:58;94841.19;;;-3.38;80.87
21588;BME280;10956;48.878;13.316;2024-01-10T01:27:24;94840.22;;;-3.37;80.95
21588;BME280;10956;48.878;13.316;2024-01-10T01:29:49;94834.88;;;-3.36;80.47
21588;BME280;10956;48.878;13.316;2024-01-10T01:32:15;94838.59;;;-3.38;80.55
21588;BME280;10956;48.878;13.316;2024-01-10T01:34:40;94839.56;;;-3.39;80.79
21588;BME280;10956;48.878;13.316;2024-01-10T01:37:05;94847.47;;;-3.41;81.02
21588;BME280;10956;48.878;13.316;2024-01-10T01:39:31;94847.47;;;-3.41;81.11
21588;BME280;10956;48.878;13.316;2024-01-10T01:41:56;94844.41;;;-3.44;81.26
21588;BME280;10956;48.878;13.316;2024-01-10T01:44:22;94842.16;;;-3.47;81.38
21588;BME280;10956;48.878;13.316;2024-01-10T01:46:47;94843.13;;;-3.48;81.25
21588;BME280;10956;48.878;13.316;2024-01-10T01:49:14;94847.97;;;-3.53;81.44
21588;BME280;10956;48.878;13.316;2024-01-10T01:51:40;94843.94;;;-3.56;81.91
21588;BME280;10956;48.878;13.316;2024-01-10T01:54:07;94848.28;;;-3.56;82.21
21588;BME280;10956;48.878;13.316;2024-01-10T01:56:36;94836.53;;;-3.59;82.33
21588;BME280;10956;48.878;13.316;2024-01-10T01:59:02;94834.28;;;-3.54;82.12
21588;BME280;10956;48.878;13.316;2024-01-10T02:01:28;94836.69;;;-3.52;82.40
21588;BME280;10956;48.878;13.316;2024-01-10T02:03:54;94835.88;;;-3.53;82.33
21588;BME280;10956;48.878;13.316;2024-01-10T02:06:20;94831.53;;;-3.52;82.86
21588;BME280;10956;48.878;13.316;2024-01-10T02:08:45;94833.16;;;-3.51;82.79
21588;BME280;10956;48.878;13.316;2024-01-10T02:11:11;94831.53;;;-3.52;82.48
21588;BME280;10956;48.878;13.316;2024-01-10T02:13:37;94829.94;;;-3.53;82.39
21588;BME280;10956;48.878;13.316;2024-01-10T02:16:03;94828.66;;;-3.58;83.13
21588;BME280;10956;48.878;13.316;2024-01-10T02:18:29;94837.69;;;-3.62;83.03
21588;BME280;10956;48.878;13.316;2024-01-10T02:20:54;94836.06;;;-3.63;83.51
21588;BME280;10956;48.878;13.316;2024-01-10T02:23:20;94828.66;;;-3.66;83.50
21588;BME280;10956;48.878;13.316;2024-01-10T02:25:45;94822.53;;;-3.65;84.24
21588;BME280;10956;48.878;13.316;2024-01-10T02:28:11;94829.78;;;-3.60;84.39
21588;BME280;10956;48.878;13.316;2024-01-10T02:30:37;94821.41;;;-3.62;84.54
21588;BME280;10956;48.878;13.316;2024-01-10T02:33:03;94823.19;;;-3.63;84.71
21588;BME280;10956;48.878;13.316;2024-01-10T02:35:28;94820.13;;;-3.66;84.82
21588;BME280;10956;48.878;13.316;2024-01-10T02:37:56;94818.69;;;-3.69;85.14
21588;BME280;10956;48.878;13.316;2024-01-10T02:40:21;94820.31;;;-3.76;85.14
21588;BME280;10956;48.878;13.316;2024-01-10T02:42:47;94828.50;;;-3.80;85.19
21588;BME280;10956;48.878;13.316;2024-01-10T02:45:12;94821.91;;;-3.83;85.07
21588;BME280;10956;48.878;13.316;2024-01-10T02:47:38;94822.56;;;-3.89;85.60
21588;BME280;10956;48.878;13.316;2024-01-10T02:50:04;94822.25;;;-3.94;85.78
21588;BME280;10956;48.878;13.316;2024-01-10T02:52:30;94815.00;;;-3.99;86.07
21588;BME280;10956;48.878;13.316;2024-01-10T02:54:55;94809.69;;;-3.97;86.00
21588;BME280;10956;48.878;13.316;2024-01-10T02:57:21;94812.75;;;-3.94;86.78
21588;BME280;10956;48.878;13.316;2024-01-10T02:59:46;94813.56;;;-3.93;86.63
21588;BME280;10956;48.878;13.316;2024-01-10T03:02:12;94808.41;;;-3.93;86.62
21588;BME280;10956;48.878;13.316;2024-01-10T03:04:37;94804.22;;;-3.94;87.13
21588;BME280;10956;48.878;13.316;2024-01-10T03:07:03;94803.59;;;-3.96;87.09
21588;BME280;10956;48.878;13.316;2024-01-10T03:09:28;94797.47;;;-3.95;87.21
21588;BME280;10956;48.878;13.316;2024-01-10T03:11:54;94795.84;;;-3.96;87.27
21588;BME280;10956;48.878;13.316;2024-01-10T03:14:19;94794.91;;;-3.95;87.56
21588;BME280;10956;48.878;13.316;2024-01-10T03:16:44;94793.59;;;-3.99;87.36
21588;BME280;10956;48.878;13.316;2024-01-10T03:19:11;94796.19;;;-3.99;87.70
21588;BME280;10956;48.878;13.316;2024-01-10T03:21:36;94792.00;;;-4.00;88.38
21588;BME280;10956;48.878;13.316;2024-01-10T03:24:02;94797.16;;;-4.00;88.14
21588;BME280;10956;48.878;13.316;2024-01-10T03:26:28;94797.47;;;-4.03;89.78
21588;BME280;10956;48.878;13.316;2024-01-10T03:28:53;94794.25;;;-4.05;90.15
21588;BME280;10956;48.878;13.316;2024-01-10T03:31:20;94796.84;;;-4.05;89.94
21588;BME280;10956;48.878;13.316;2024-01-10T03:33:45;94790.72;;;-4.04;89.60
21588;BME280;10956;48.878;13.316;2024-01-10T03:36:12;94794.25;;;-4.05;89.12
21588;BME280;10956;48.878;13.316;2024-01-10T03:38:41;94797.47;;;-4.03;89.01
21588;BME280;10956;48.878;13.316;2024-01-10T03:41:06;94791.69;;;-4.05;89.32
21588;BME280;10956;48.878;13.316;2024-01-10T03:43:32;94795.22;;;-4.06;89.44
21588;BME280;10956;48.878;13.316;2024-01-10T03:45:58;94792.66;;;-4.06;89.05
21588;BME280;10956;48.878;13.316;2024-01-10T03:48:23;94791.34;;;-4.10;89.02
21588;BME280;10956;48.878;13.316;2024-01-10T03:50:49;94790.72;;;-4.12;89.52
21588;BME280;10956;48.878;13.316;2024-01-10T03:53:14;94787.50;;;-4.14;89.57
21588;BME280;10956;48.878;13.316;2024-01-10T03:55:40;94790.06;;;-4.14;89.78
21588;BME280;10956;48.878;13.316;2024-01-10T03:58:05;94788.47;;;-4.15;89.66
21588;BME280;10956;48.878;13.316;2024-01-10T04:00:31;94790.72;;;-4.12;89.80
21588;BME280;10956;48.878;13.316;2024-01-10T04:02:56;94792.00;;;-4.16;89.98
21588;BME280;10956;48.878;13.316;2024-01-10T04:05:22;94796.03;;;-4.14;89.57
21588;BME280;10956;48.878;13.316;2024-01-10T04:07:50;94791.34;;;-4.10;89.95
21588;BME280;10956;48.878;13.316;2024-01-10T04:10:15;94785.88;;;-4.07;89.68
21588;BME280;10956;48.878;13.316;2024-01-10T04:12:41;94791.34;;;-4.10;90.63
21588;BME280;10956;48.878;13.316;2024-01-10T04:15:06;94787.19;;;-4.11;91.75
21588;BME280;10956;48.878;13.316;2024-01-10T04:17:32;94788.63;;;-4.09;93.53
21588;BME280;10956;48.878;13.316;2024-01-10T04:19:58;94794.91;;;-4.11;94.62
21588;BME280;10956;48.878;13.316;2024-01-10T04:22:24;94798.75;;;-4.15;96.32
21588;BME280;10956;48.878;13.316;2024-01-10T04:24:50;94796.50;;;-4.18;95.75
21588;BME280;10956;48.878;13.316;2024-01-10T04:27:16;94796.84;;;-4.21;95.58
21588;BME280;10956;48.878;13.316;2024-01-10T04:29:41;94802.13;;;-4.23;95.92
21588;BME280;10956;48.878;13.316;2024-01-10T04:32:07;94794.56;;;-4.25;95.91
21588;BME280;10956;48.878;13.316;2024-01-10T04:34:32;94798.13;;;-4.26;96.94
21588;BME280;10956;48.878;13.316;2024-01-10T04:36:57;94784.59;;;-4.28;97.11
21588;BME280;10956;48.878;13.316;2024-01-10T04:39:23;94787.19;;;-4.28;96.94
21588;BME280;10956;48.878;13.316;2024-01-10T04:41:48;94795.69;;;-4.27;95.96
21588;BME280;10956;48.878;13.316;2024-01-10T04:44:14;94800.03;;;-4.28;96.38
21588;BME280;10956;48.878;13.316;2024-01-10T04:46:39;94796.19;;;-4.32;96.74
21588;BME280;10956;48.878;13.316;2024-01-10T04:49:06;94792.81;;;-4.32;96.72
21588;BME280;10956;48.878;13.316;2024-01-10T04:51:31;94795.53;;;-4.34;96.52
21588;BME280;10956;48.878;13.316;2024-01-10T04:53:57;94798.75;;;-4.32;97.14
21588;BME280;10956;48.878;13.316;2024-01-10T04:56:22;94798.44;;;-4.29;98.15
21588;BME280;10956;48.878;13.316;2024-01-10T04:58:48;94806.47;;;-4.24;98.45
21588;BME280;10956;48.878;13.316;2024-01-10T05:01:13;94805.84;;;-4.17;97.63
21588;BME280;10956;48.878;13.316;2024-01-10T05:03:38;94807.78;;;-4.19;96.83
21588;BME280;10956;48.878;13.316;2024-01-10T05:06:04;94814.19;;;-4.15;97.52
21588;BME280;10956;48.878;13.316;2024-01-10T05:08:30;94813.88;;;-4.12;97.89
21588;BME280;10956;48.878;13.316;2024-01-10T05:10:55;94823.22;;;-4.11;97.37
21588;BME280;10956;48.878;13.316;2024-01-10T05:13:21;94826.28;;;-4.08;98.32
21588;BME280;10956;48.878;13.316;2024-01-10T05:15:46;94831.75;;;-4.11;99.54
21588;BME280;10956;48.878;13.316;2024-01-10T05:18:12;94835.44;;;-4.05;99.57
21588;BME280;10956;48.878;13.316;2024-01-10T05:20:37;94834.63;;;-4.06;99.22
21588;BME280;10956;48.878;13.316;2024-01-10T05:23:03;94840.28;;;-4.02;100.00
21588;BME280;10956;48.878;13.316;2024-01-10T05:25:29;94841.56;;;-3.98;99.76
21588;BME280;10956;48.878;13.316;2024-01-10T05:27:54;94838.97;;;-4.06;99.24
21588;BME280;10956;48.878;13.316;2024-01-10T05:30:20;94837.22;;;-4.14;98.86
21588;BME280;10956;48.878;13.316;2024-01-10T05:32:45;94841.72;;;-4.16;98.62
21588;BME280;10956;48.878;13.316;2024-01-10T05:35:11;94845.41;;;-4.18;98.81
21588;BME280;10956;48.878;13.316;2024-01-10T05:37:36;94841.56;;;-4.14;99.08
21588;BME280;10956;48.878;13.316;2024-01-10T05:40:03;94848.00;;;-4.10;99.38
21588;BME280;10956;48.878;13.316;2024-01-10T05:42:31;94852.19;;;-4.09;99.90
21588;BME280;10956;48.878;13.316;2024-01-10T05:44:58;94850.56;;;-4.10;100.00
21588;BME280;10956;48.878;13.316;2024-01-10T05:47:24;94846.38;;;-4.11;99.53
21588;BME280;10956;48.878;13.316;2024-01-10T05:49:51;94854.25;;;-4.13;100.00
21588;BME280;10956;48.878;13.316;2024-01-10T05:52:18;94859.09;;;-4.10;100.00
21588;BME280;10956;48.878;13.316;2024-01-10T05:54:44;94856.50;;;-4.10;100.00
21588;BME280;10956;48.878;13.316;2024-01-10T05:57:09;94858.28;;;-4.10;100.00
21588;BME280;10956;48.878;13.316;2024-01-10T05:59:35;94856.34;;;-4.08;99.70
21588;BME280;10956;48.878;13.316;2024-01-10T06:02:01;94858.59;;;-4.13;100.00
21588;BME280;10956;48.878;13.316;2024-01-10T06:04:27;94869.22;;;-4.16;100.00
21588;BME280;10956;48.878;13.316;2024-01-10T06:06:57;94852.47;;;-4.20;100.00
21588;BME280;10956;48.878;13.316;2024-01-10T06:09:22;94856.81;;;-4.21;100.00
21588;BME280;10956;48.878;13.316;2024-01-10T06:11:48;94856.66;;;-4.19;100.00
21588;BME280;10956;48.878;13.316;2024-01-10T06:14:14;94856.19;;;-4.15;100.00
21588;BME280;10956;48.878;13.316;2024-01-10T06:16:39;94851.53;;;-4.11;100.00
21588;BME280;10956;48.878;13.316;2024-01-10T06:19:05;94853.47;;;-4.13;100.00
21588;BME280;10956;48.878;13.316;2024-01-10T06:21:31;94860.53;;;-4.15;100.00
21588;BME280;10956;48.878;13.316;2024-01-10T06:23:56;94850.56;;;-4.18;100.00
21588;BME280;10956;48.878;13.316;2024-01-10T06:26:21;94855.38;;;-4.15;100.00
21588;BME280;10956;48.878;13.316;2024-01-10T06:28:47;94858.13;;;-4.17;100.00
21588;BME280;10956;48.878;13.316;2024-01-10T06:31:13;94859.72;;;-4.16;99.79
21588;BME280;10956;48.878;13.316;2024-01-10T06:33:39;94857.31;;;-4.17;99.83
21588;BME280;10956;48.878;13.316;2024-01-10T06:36:04;94856.66;;;-4.19;100.00
21588;BME280;10956;48.878;13.316;2024-01-10T06:38:30;94864.06;;;-4.16;100.00
21588;BME280;10956;48.878;13.316;2024-01-10T06:40:56;94860.84;;;-4.18;100.00
21588;BME280;10956;48.878;13.316;2024-01-10T06:43:21;94862.47;;;-4.17;100.00
21588;BME280;10956;48.878;13.316;2024-01-10T06:45:47;94868.56;;;-4.27;100.00
21588;BME280;10956;48.878;13.316;2024-01-10T06:48:13;94872.09;;;-4.28;100.00
21588;BME280;10956;48.878;13.316;2024-01-10T06:50:38;94866.94;;;-4.28;100.00
21588;BME280;10956;48.878;13.316;2024-01-10T06:53:04;94863.72;;;-4.30;100.00
21588;BME280;10956;48.878;13.316;2024-01-10T06:55:29;94862.13;;;-4.31;100.00
21588;BME280;10956;48.878;13.316;2024-01-10T06:57:55;94860.84;;;-4.27;100.00
21588;BME280;10956;48.878;13.316;2024-01-10T07:00:21;94867.44;;;-4.24;100.00
21588;BME280;10956;48.878;13.316;2024-01-10T07:02:47;94866.31;;;-4.21;100.00
21588;BME280;10956;48.878;13.316;2024-01-10T07:05:14;94869.53;;;-4.19;100.00
21588;BME280;10956;48.878;13.316;2024-01-10T07:07:40;94872.75;;;-4.17;100.00
21588;BME280;10956;48.878;13.316;2024-01-10T07:10:05;94867.28;;;-4.14;100.00
21588;BME280;10956;48.878;13.316;2024-01-10T07:12:32;94864.88;;;-4.16;100.00
21588;BME280;10956;48.878;13.316;2024-01-10T07:14:58;94872.75;;;-4.17;100.00
21588;BME280;10956;48.878;13.316;2024-01-10T07:17:23;94879.50;;;-4.16;100.00
21588;BME280;10956;48.878;13.316;2024-01-10T07:19:49;94871.94;;;-4.18;100.00
21588;BME280;10956;48.878;13.316;2024-01-10T07:22:15;94870.97;;;-4.17;100.00
21588;BME280;10956;48.878;13.316;2024-01-10T07:24:40;94876.78;;;-4.15;100.00
21588;BME280;10956;48.878;13.316;2024-01-10T07:27:05;94866.81;;;-4.10;100.00
21588;BME280;10956;48.878;13.316;2024-01-10T07:29:32;94882.09;;;-4.08;100.00
21588;BME280;10956;48.878;13.316;2024-01-10T07:31:57;94875.34;;;-4.09;100.00
21588;BME280;10956;48.878;13.316;2024-01-10T07:34:23;94883.06;;;-4.01;100.00
21588;BME280;10956;48.878;13.316;2024-01-10T07:36:48;94876.97;;;-4.00;100.00
21588;BME280;10956;48.878;13.316;2024-01-10T07:39:14;94881.94;;;-3.99;100.00
21588;BME280;10956;48.878;13.316;2024-01-10T07:41:45;94879.22;;;-3.97;100.00
21588;BME280;10956;48.878;13.316;2024-01-10T07:44:11;94887.41;;;-3.94;100.00
21588;BME280;10956;48.878;13.316;2024-01-10T07:46:37;94889.69;;;-3.91;100.00
21588;BME280;10956;48.878;13.316;2024-01-10T07:49:06;94894.19;;;-3.84;100.00
21588;BME280;10956;48.878;13.316;2024-01-10T07:51:31;94896.59;;;-3.83;100.00
21588;BME280;10956;48.878;13.316;2024-01-10T07:53:58;94896.91;;;-3.86;100.00
21588;BME280;10956;48.878;13.316;2024-01-10T07:56:24;94899.16;;;-3.91;100.00
21588;BME280;10956;48.878;13.316;2024-01-10T07:58:49;94902.06;;;-3.94;100.00
21588;BME280;10956;48.878;13.316;2024-01-10T08:01:16;94902.06;;;-3.94;100.00
21588;BME280;10956;48.878;13.316;2024-01-10T08:03:42;94904.00;;;-3.88;100.00
21588;BME280;10956;48.878;13.316;2024-01-10T08:06:07;94905.63;;;-3.87;100.00
21588;BME280;10956;48.878;13.316;2024-01-10T08:08:33;94904.97;;;-3.81;100.00
21588;BME280;10956;48.878;13.316;2024-01-10T08:10:59;94902.22;;;-3.79;100.00
21588;BME280;10956;48.878;13.316;2024-01-10T08:13:24;94913.03;;;-3.76;100.00
21588;BME280;10956;48.878;13.316;2024-01-10T08:15:49;94906.09;;;-3.67;100.00
21588;BME280;10956;48.878;13.316;2024-01-10T08:18:16;94915.91;;;-3.54;100.00
21588;BME280;10956;48.878;13.316;2024-01-10T08:20:41;94917.84;;;-3.48;100.00
21588;BME280;10956;48.878;13.316;2024-01-10T08:23:06;94915.28;;;-3.48;99.07
21588;BME280;10956;48.878;13.316;2024-01-10T08:25:33;94916.88;;;-3.47;98.17
21588;BME280;10956;48.878;13.316;2024-01-10T08:27:58;94917.53;;;-3.45;97.70
21588;BME280;10956;48.878;13.316;2024-01-10T08:30:24;94919.78;;;-3.42;96.84
21588;BME280;10956;48.878;13.316;2024-01-10T08:32:50;94914.31;;;-3.39;96.50
21588;BME280;10956;48.878;13.316;2024-01-10T08:35:15;94916.88;;;-3.31;96.12
21588;BME280;10956;48.878;13.316;2024-01-10T08:37:41;94911.38;;;-3.28;96.02
21588;BME280;10956;48.878;13.316;2024-01-10T08:40:11;94915.91;;;-3.22;95.73
21588;BME280;10956;48.878;13.316;2024-01-10T08:42:37;94911.69;;;-3.15;94.91
21588;BME280;10956;48.878;13.316;2024-01-10T08:45:03;94923.63;;;-3.14;94.11
21588;BME280;10956;48.878;13.316;2024-01-10T08:47:29;94930.22;;;-3.11;93.71
21588;BME280;10956;48.878;13.316;2024-01-10T08:49:58;94927.31;;;-3.08;93.46
21588;BME280;10956;48.878;13.316;2024-01-10T08:52:23;94928.91;;;-3.07;93.16
21588;BME280;10956;48.878;13.316;2024-01-10T08:54:49;94930.53;;;-3.06;93.36
21588;BME280;10956;48.878;13.316;2024-01-10T08:57:14;94933.28;;;-3.08;93.77
21588;BME280;10956;48.878;13.316;2024-01-10T08:59:42;94936.16;;;-3.03;94.60
21588;BME280;10956;48.878;13.316;2024-01-10T09:02:08;94939.72;;;-3.04;95.34
21588;BME280;10956;48.878;13.316;2024-01-10T09:04:33;94936.16;;;-3.03;96.16
21588;BME280;10956;48.878;13.316;2024-01-10T09:06:59;94936.97;;;-3.02;97.44
21588;BME280;10956;48.878;13.316;2024-01-10T09:09:24;94934.22;;;-3.01;98.08
21588;BME280;10956;48.878;13.316;2024-01-10T09:11:49;94934.22;;;-3.01;98.44
21588;BME280;10956;48.878;13.316;2024-01-10T09:14:15;94944.22;;;-2.98;99.41
21588;BME280;10956;48.878;13.316;2024-01-10T09:16:40;94939.06;;;-2.98;99.56
21588;BME280;10956;48.878;13.316;2024-01-10T09:19:06;94941.00;;;-3.00;99.98
21588;BME280;10956;48.878;13.316;2024-01-10T09:21:31;94942.28;;;-2.96;99.50
21588;BME280;10956;48.878;13.316;2024-01-10T09:23:56;94938.41;;;-2.91;98.44
21588;BME280;10956;48.878;13.316;2024-01-10T09:26:22;94942.56;;;-2.82;97.21
21588;BME280;10956;48.878;13.316;2024-01-10T09:28:48;94946.91;;;-2.75;96.33
21588;BME280;10956;48.878;13.316;2024-01-10T09:31:13;94939.63;;;-2.71;95.47
21588;BME280;10956;48.878;13.316;2024-01-10T09:33:39;94944.47;;;-2.68;94.97
21588;BME280;10956;48.878;13.316;2024-01-10T09:36:05;94952.03;;;-2.67;95.04
21588;BME280;10956;48.878;13.316;2024-01-10T09:38:35;94947.34;;;-2.63;95.26
21588;BME280;10956;48.878;13.316;2024-01-10T09:41:02;94945.41;;;-2.61;95.76
21588;BME280;10956;48.878;13.316;2024-01-10T09:43:32;94951.50;;;-2.54;96.03
21588;BME280;10956;48.878;13.316;2024-01-10T09:46:01;94957.47;;;-2.53;96.09
21588;BME280;10956;48.878;13.316;2024-01-10T09:48:30;94948.59;;;-2.51;96.95
21588;BME280;10956;48.878;13.316;2024-01-10T09:50:56;94954.06;;;-2.46;96.63
21588;BME280;10956;48.878;13.316;2024-01-10T09:53:23;94951.31;;;-2.44;96.53
21588;BME280;10956;48.878;13.316;2024-01-10T09:55:58;94943.22;;;-2.41;95.84
21588;BME280;10956;48.878;13.316;2024-01-10T09:58:26;94950.13;;;-2.34;94.95
21588;BME280;10956;48.878;13.316;2024-01-10T10:00:52;94955.59;;;-2.29;93.76
21588;BME280;10956;48.878;13.316;2024-01-10T10:03:18;94952.06;;;-2.28;92.93
21588;BME280;10956;48.878;13.316;2024-01-10T10:05:44;94948.78;;;-2.21;92.60
21588;BME280;10956;48.878;13.316;2024-01-10T10:08:11;94947.47;;;-2.17;91.68
21588;BME280;10956;48.878;13.316;2024-01-10T10:10:38;94945.19;;;-2.12;91.05
21588;BME280;10956;48.878;13.316;2024-01-10T10:13:09;94937.75;;;-2.07;90.37
21588;BME280;10956;48.878;13.316;2024-01-10T10:15:36;94944.53;;;-2.06;90.05
21588;BME280;10956;48.878;13.316;2024-01-10T10:18:02;94936.72;;;-1.98;89.71
21588;BME280;10956;48.878;13.316;2024-01-10T10:20:29;94943.16;;;-1.94;89.05
21588;BME280;10956;48.878;13.316;2024-01-10T10:23:05;94953.78;;;-1.89;88.84
21588;BME280;10956;48.878;13.316;2024-01-10T10:25:50;94943.75;;;-1.84;88.46
21588;BME280;10956;48.878;13.316;2024-01-10T10:28:15;94946.09;;;-1.74;88.41
21588;BME280;10956;48.878;13.316;2024-01-10T10:30:41;94940.41;;;-1.70;88.44
21588;BME280;10956;48.878;13.316;2024-01-10T10:33:08;94953.00;;;-1.67;88.45
21588;BME280;10956;48.878;13.316;2024-01-10T10:35:34;94951.34;;;-1.59;88.37
21588;BME280;10956;48.878;13.316;2024-01-10T10:37:59;94943.25;;;-1.56;88.73
21588;BME280;10956;48.878;13.316;2024-01-10T10:40:25;94946.75;;;-1.49;88.42
21588;BME280;10956;48.878;13.316;2024-01-10T10:42:57;94949.16;;;-1.48;88.28
21588;BME280;10956;48.878;13.316;2024-01-10T10:45:22;94936.84;;;-1.46;88.33
21588;BME280;10956;48.878;13.316;2024-01-10T10:47:57;94947.31;;;-1.39;87.83
21588;BME280;10956;48.878;13.316;2024-01-10T10:50:23;94939.47;;;-1.31;87.43
21588;BME280;10956;48.878;13.316;2024-01-10T10:52:50;94942.81;;;-1.22;87.35
21588;BME280;10956;48.878;13.316;2024-01-10T10:55:16;94940.50;;;-1.17;86.79
21588;BME280;10956;48.878;13.316;2024-01-10T10:57:46;94932.91;;;-1.19;86.52
21588;BME280;10956;48.878;13.316;2024-01-10T11:00:31;94931.22;;;-1.12;86.31
21588;BME280;10956;48.878;13.316;2024-01-10T11:02:57;94930.25;;;-1.11;85.93
21588;BME280;10956;48.878;13.316;2024-01-10T11:05:24;94925.97;;;-1.04;85.56
21588;BME280;10956;48.878;13.316;2024-01-10T11:07:49;94926.53;;;-0.93;84.89
21588;BME280;10956;48.878;13.316;2024-01-10T11:10:32;94926.63;;;-0.87;84.31
21588;BME280;10956;48.878;13.316;2024-01-10T11:24:12;94910.66;;;-0.61;82.87
21588;BME280;10956;48.878;13.316;2024-01-10T11:26:38;94908.69;;;-0.59;82.28
21588;BME280;10956;48.878;13.316;2024-01-10T11:29:04;94892.44;;;-0.53;81.65
21588;BME280;10956;48.878;13.316;2024-01-10T11:31:31;94897.97;;;-0.41;81.54
21588;BME280;10956;48.878;13.316;2024-01-10T11:33:58;94892.97;;;-0.43;80.98
21588;BME280;10956;48.878;13.316;2024-01-10T11:36:25;94893.22;;;-0.38;80.41
21588;BME280;10956;48.878;13.316;2024-01-10T11:41:22;94898.31;;;-0.29;80.42
21588;BME280;10956;48.878;13.316;2024-01-10T11:46:41;94895.59;;;-0.21;79.89
21588;BME280;10956;48.878;13.316;2024-01-10T11:49:11;94892.03;;;-0.20;80.18
21588;BME280;10956;48.878;13.316;2024-01-10T11:51:37;94893.44;;;-0.18;79.75
21588;BME280;10956;48.878;13.316;2024-01-10T11:54:02;94894.50;;;-0.12;79.37
21588;BME280;10956;48.878;13.316;2024-01-10T11:56:38;94891.13;;;-0.13;79.20
21588;BME280;10956;48.878;13.316;2024-01-10T11:59:11;94888.53;;;-0.13;79.38
21588;BME280;10956;48.878;13.316;2024-01-10T12:01:37;94882.53;;;-0.13;79.83
21588;BME280;10956;48.878;13.316;2024-01-10T12:04:04;94883.78;;;-0.09;79.56
21588;BME280;10956;48.878;13.316;2024-01-10T12:06:31;94880.22;;;-0.08;79.18
21588;BME280;10956;48.878;13.316;2024-01-10T12:08:57;94879.47;;;-0.02;79.04
21588;BME280;10956;48.878;13.316;2024-01-10T12:11:23;94880.72;;;0.02;78.78
21588;BME280;10956;48.878;13.316;2024-01-10T12:13:48;94881.59;;;0.09;77.72
21588;BME280;10956;48.878;13.316;2024-01-10T12:16:14;94878.81;;;0.11;77.53
21588;BME280;10956;48.878;13.316;2024-01-10T12:18:42;94879.97;;;0.08;77.42
21588;BME280;10956;48.878;13.316;2024-01-10T12:21:07;94884.78;;;0.11;77.16
21588;BME280;10956;48.878;13.316;2024-01-10T12:23:35;94879.00;;;0.09;77.56
21588;BME280;10956;48.878;13.316;2024-01-10T12:26:02;94868.88;;;0.14;76.53
21588;BME280;10956;48.878;13.316;2024-01-10T12:28:28;94874.31;;;0.19;76.49
21588;BME280;10956;48.878;13.316;2024-01-10T12:30:54;94867.75;;;0.23;75.90
21588;BME280;10956;48.878;13.316;2024-01-10T12:33:22;94867.16;;;0.21;75.68
21588;BME280;10956;48.878;13.316;2024-01-10T12:36:08;94860.97;;;0.22;75.72
21588;BME280;10956;48.878;13.316;2024-01-10T12:38:35;94866.16;;;0.22;74.57
21588;BME280;10956;48.878;13.316;2024-01-10T12:41:01;94871.78;;;0.26;73.62
21588;BME280;10956;48.878;13.316;2024-01-10T12:43:27;94871.84;;;0.32;73.02
21588;BME280;10956;48.878;13.316;2024-01-10T12:46:09;94867.88;;;0.37;72.56
21588;BME280;10956;48.878;13.316;2024-01-10T12:48:41;94867.50;;;0.40;72.75
21588;BME280;10956;48.878;13.316;2024-01-10T12:51:11;94871.16;;;0.45;71.99
21588;BME280;10956;48.878;13.316;2024-01-10T12:56:04;94875.03;;;0.56;71.43
21588;BME280;10956;48.878;13.316;2024-01-10T12:58:30;94869.75;;;0.71;70.91
21588;BME280;10956;48.878;13.316;2024-01-10T13:00:56;94870.59;;;0.78;69.99